Alberton, Montana
Current Conditions -  °F | °C
As of 2:53 PM on Wednesday 22 Oct 2014 (Local Time) from KMSO Reporting Station
Clear Clear  
Wind Chill: 59°   Ceiling: Unl
Heat Index: 59°   Visibility: 10mi
Dew Point: 36°   Wind: 14mph
Humidity: 42%   Direction: 160°SSE
Pressure: 29.96"   Gusts: NA
Location:  47°N, 114.47°W
Report Text: KMSO 222053Z AUTO 16012KT 10SM CLR 15/02 A2996 RMK AO2 SLP147 T01500022 58027
Loading
Personal Weather Stations






























Interactive Weather Map
Tropical Storm Tracking
New forecast layout! Learn more

10-Day Weather Forecast

Advertisements
Track Severe Weather on mobile